Time;durP1;ratioP1;P1;durP2;ratioP2;P2;SDS_P1;SDS_P2;PMS_P1;PMS_P2;Temp;Humidity;BMP_temperature;BMP_pressure;BME280_temperature;BME280_humidity;BME280_pressure;Samples;Min_cycle;Max_cycle;Signal;HPM_P1;HPM_P2
2022/03/28 00:00:50;;;;;;;0.80;0.55;;;;;;;17.41;20.51;98939.00;5054840;28;20522;-77
2022/03/28 00:03:16;;;;;;;1.02;0.50;;;;;;;17.44;21.74;98946.63;5039429;28;20511;-68
2022/03/28 00:05:41;;;;;;;0.75;0.50;;;;;;;17.51;22.10;98934.22;5052446;28;20041;-70
2022/03/28 00:08:07;;;;;;;1.50;0.52;;;;;;;17.54;21.28;98933.84;5044022;28;20038;-70
2022/03/28 00:10:33;;;;;;;1.95;0.75;;;;;;;17.48;20.98;98934.56;5055231;28;20037;-70
2022/03/28 00:12:59;;;;;;;1.10;0.50;;;;;;;17.40;20.68;98932.78;5054744;28;20048;-69
2022/03/28 00:15:25;;;;;;;0.38;0.28;;;;;;;17.28;21.21;98928.88;5054384;28;20490;-69
2022/03/28 00:17:50;;;;;;;2.38;0.75;;;;;;;17.10;21.38;98935.38;5048923;28;20035;-70
2022/03/28 00:20:16;;;;;;;1.05;0.60;;;;;;;16.97;21.38;98937.78;5054517;28;20029;-68
2022/03/28 00:22:42;;;;;;;3.25;0.90;;;;;;;16.84;21.30;98938.34;5054130;28;20470;-67
2022/03/28 00:25:09;;;;;;;2.17;0.60;;;;;;;16.81;22.20;98938.72;5054892;28;20037;-68
2022/03/28 00:27:35;;;;;;;1.65;0.50;;;;;;;16.83;22.88;98947.38;5054265;28;20044;-69
2022/03/28 00:30:00;;;;;;;0.77;0.50;;;;;;;16.83;22.99;98945.53;5055269;28;20465;-69
2022/03/28 00:32:26;;;;;;;1.23;0.70;;;;;;;16.89;24.05;98935.97;5054049;28;20025;-69
2022/03/28 00:34:52;;;;;;;2.03;0.52;;;;;;;16.92;24.39;98933.78;5054533;28;20036;-71
2022/03/28 00:37:17;;;;;;;1.10;0.70;;;;;;;16.93;24.90;98937.28;5054558;28;20037;-71
2022/03/28 00:39:43;;;;;;;1.23;0.60;;;;;;;16.99;24.57;98939.28;5054580;28;20040;-69
2022/03/28 00:42:09;;;;;;;1.25;0.75;;;;;;;17.03;24.87;98935.25;5053753;28;20032;-69
2022/03/28 00:44:36;;;;;;;1.70;0.80;;;;;;;17.06;25.04;98944.72;5048802;28;20037;-71
2022/03/28 00:47:02;;;;;;;1.00;0.82;;;;;;;17.07;25.01;98931.22;5053809;28;20128;-69
2022/03/28 00:49:27;;;;;;;1.65;0.50;;;;;;;17.07;24.77;98927.69;5054307;28;20107;-69
2022/03/28 00:51:53;;;;;;;1.42;0.60;;;;;;;17.08;25.98;98938.22;5054016;28;20033;-69
2022/03/28 00:54:19;;;;;;;0.95;0.50;;;;;;;17.11;25.93;98941.56;5054886;28;20056;-73
2022/03/28 00:56:48;;;;;;;2.72;0.90;;;;;;;17.11;26.44;98936.22;5053989;28;20039;-70
2022/03/28 00:59:15;;;;;;;1.23;0.68;;;;;;;17.07;25.60;98933.88;5053269;28;20029;-69
2022/03/28 01:01:41;;;;;;;2.00;0.70;;;;;;;17.10;25.67;98929.19;5036263;28;20060;-70
2022/03/28 01:04:07;;;;;;;1.90;0.70;;;;;;;17.08;25.91;98927.53;5053529;28;20075;-68
2022/03/28 01:06:34;;;;;;;1.95;0.73;;;;;;;17.06;25.49;98910.84;5053803;28;20090;-72
2022/03/28 01:09:01;;;;;;;0.80;0.50;;;;;;;17.03;24.02;98918.38;5053712;28;20076;-70
2022/03/28 01:11:28;;;;;;;2.53;0.50;;;;;;;16.95;23.35;98913.09;5051612;28;20037;-70
2022/03/28 01:13:54;;;;;;;0.90;0.50;;;;;;;16.86;23.77;98910.44;5054157;28;20035;-69
2022/03/28 01:16:20;;;;;;;0.85;0.52;;;;;;;16.76;23.58;98915.19;5053975;28;20458;-71
2022/03/28 01:18:49;;;;;;;1.75;0.65;;;;;;;16.63;23.39;98905.06;5053727;28;20029;-68
2022/03/28 01:21:17;;;;;;;2.45;0.68;;;;;;;16.57;22.99;98913.78;5052527;28;20055;-72
2022/03/28 01:23:42;;;;;;;0.85;0.50;;;;;;;16.48;23.15;98908.50;5053263;28;20508;-72
2022/03/28 01:26:08;;;;;;;2.83;0.73;;;;;;;16.39;23.42;98914.88;5053150;28;20132;-69
2022/03/28 01:28:35;;;;;;;1.60;0.85;;;;;;;16.37;23.82;98911.56;5051650;28;20028;-71
2022/03/28 01:31:00;;;;;;;1.75;0.65;;;;;;;16.50;24.37;98921.66;5053149;28;20028;-70
2022/03/28 01:33:26;;;;;;;1.08;0.68;;;;;;;16.68;24.29;98929.44;5051837;28;20029;-68
2022/03/28 01:35:52;;;;;;;2.13;0.70;;;;;;;16.85;24.22;98921.28;5033320;28;20028;-72
2022/03/28 01:38:19;;;;;;;3.45;0.77;;;;;;;17.00;24.74;98916.88;5053050;28;20036;-71
2022/03/28 01:40:51;;;;;;;2.50;0.50;;;;;;;17.12;24.38;98913.81;5052786;28;20036;-70
2022/03/28 01:43:18;;;;;;;1.77;0.70;;;;;;;17.21;24.90;98899.38;5051587;28;20032;-70
2022/03/28 01:45:44;;;;;;;4.50;0.75;;;;;;;17.27;25.36;98898.66;5042336;28;20383;-73
2022/03/28 01:48:10;;;;;;;2.53;0.70;;;;;;;17.31;24.63;98905.28;5050753;28;20039;-75
2022/03/28 01:50:36;;;;;;;1.70;0.52;;;;;;;17.34;24.46;98894.25;5051630;28;20510;-72
2022/03/28 01:53:02;;;;;;;0.57;0.38;;;;;;;17.39;25.01;98891.88;5050526;28;20488;-72
2022/03/28 01:55:28;;;;;;;4.22;0.68;;;;;;;17.44;25.20;98882.44;5050875;28;20090;-72
2022/03/28 01:57:53;;;;;;;0.70;0.50;;;;;;;17.46;25.29;98883.09;5040108;28;20033;-73
2022/03/28 02:00:21;;;;;;;0.90;0.40;;;;;;;17.49;24.75;98885.41;5041274;28;20115;-73
2022/03/28 02:02:47;;;;;;;1.48;0.50;;;;;;;17.50;24.24;98871.84;5051144;28;20510;-73
2022/03/28 02:05:14;;;;;;;1.83;0.90;;;;;;;17.56;24.77;98878.34;5032477;28;20025;-73
2022/03/28 02:07:43;;;;;;;0.50;0.40;;;;;;;17.60;24.31;98879.63;5042399;28;20032;-71
2022/03/28 02:10:13;;;;;;;1.13;0.63;;;;;;;17.63;25.12;98887.28;5033254;28;20029;-73
2022/03/28 02:12:38;;;;;;;2.30;0.80;;;;;;;17.68;25.98;98884.03;5050828;28;20021;-70
2022/03/28 02:15:06;;;;;;;0.75;0.50;;;;;;;17.72;26.34;98895.25;5051124;28;20086;-70
2022/03/28 02:17:35;;;;;;;3.10;0.60;;;;;;;17.69;25.28;98891.91;5043136;28;20043;-70
2022/03/28 02:20:02;;;;;;;1.25;0.57;;;;;;;17.74;27.54;98895.84;5051444;28;20044;-71
2022/03/28 02:22:27;;;;;;;0.57;0.40;;;;;;;17.77;27.48;98900.84;5050294;28;20053;-70
2022/03/28 02:24:53;;;;;;;2.67;0.68;;;;;;;17.81;26.77;98902.97;5051361;28;20399;-73
2022/03/28 02:27:19;;;;;;;0.93;0.60;;;;;;;17.84;26.89;98893.75;5050582;28;20083;-70
2022/03/28 02:29:53;;;;;;;1.30;0.50;;;;;;;17.86;27.78;98894.41;5032249;28;20025;-70
2022/03/28 02:32:19;;;;;;;2.83;0.60;;;;;;;17.88;27.31;98895.03;5050322;28;20032;-73
2022/03/28 02:34:44;;;;;;;2.25;0.60;;;;;;;17.89;26.53;98885.19;5050938;28;20025;-71
2022/03/28 02:37:10;;;;;;;1.73;1.00;;;;;;;17.92;25.48;98871.44;5050641;28;20797;-71
2022/03/28 02:39:36;;;;;;;1.13;0.60;;;;;;;17.92;26.08;98879.47;5050522;28;20021;-71
2022/03/28 02:42:02;;;;;;;1.13;0.60;;;;;;;17.95;26.36;98890.63;5049510;28;20575;-72
2022/03/28 02:44:27;;;;;;;0.60;0.40;;;;;;;17.96;26.48;98878.06;5050562;28;20037;-73
2022/03/28 02:46:53;;;;;;;2.70;0.60;;;;;;;17.98;26.14;98876.91;5033900;28;20087;-73
2022/03/28 02:49:19;;;;;;;0.75;0.45;;;;;;;17.96;26.09;98867.34;5040421;28;20091;-73
2022/03/28 02:51:45;;;;;;;0.95;0.50;;;;;;;18.01;26.16;98866.84;5052281;28;20032;-73
2022/03/28 02:54:11;;;;;;;2.13;0.80;;;;;;;18.02;26.81;98855.09;5052730;28;20028;-74
2022/03/28 02:56:37;;;;;;;0.80;0.50;;;;;;;18.04;26.08;98861.94;5052093;28;20430;-74
2022/03/28 02:59:03;;;;;;;1.20;0.93;;;;;;;18.04;26.96;98858.44;5051927;28;20029;-72
2022/03/28 03:01:28;;;;;;;1.27;0.60;;;;;;;18.07;26.76;98858.06;5051643;28;20033;-73
2022/03/28 03:03:54;;;;;;;1.75;0.50;;;;;;;18.09;27.21;98854.16;5052051;28;20379;-74
2022/03/28 03:06:19;;;;;;;1.02;0.43;;;;;;;18.09;27.28;98846.13;5052086;28;20036;-74
2022/03/28 03:08:45;;;;;;;0.85;0.40;;;;;;;18.12;27.05;98845.78;5052206;28;20029;-73
2022/03/28 03:11:11;;;;;;;3.58;0.50;;;;;;;18.16;26.76;98846.22;5051014;28;20046;-74
2022/03/28 03:13:36;;;;;;;1.08;0.40;;;;;;;18.15;27.02;98831.19;5052148;28;20055;-73
2022/03/28 03:16:03;;;;;;;2.30;0.68;;;;;;;18.19;27.03;98832.47;5051877;28;20484;-73
2022/03/28 03:18:29;;;;;;;0.75;0.50;;;;;;;18.21;27.55;98837.66;5021873;28;20033;-74
2022/03/28 03:20:55;;;;;;;1.63;0.52;;;;;;;18.22;27.63;98836.63;5044949;28;20064;-71
2022/03/28 03:23:20;;;;;;;2.05;0.68;;;;;;;18.25;26.65;98828.19;5050935;28;20049;-72
2022/03/28 03:25:46;;;;;;;3.22;0.50;;;;;;;18.25;26.74;98821.00;5051825;28;20043;-73
2022/03/28 03:28:11;;;;;;;1.63;0.70;;;;;;;18.27;27.44;98832.38;5051987;28;20044;-73
2022/03/28 03:30:37;;;;;;;2.95;0.55;;;;;;;18.30;27.33;98825.78;5051738;28;20036;-72
2022/03/28 03:33:03;;;;;;;1.10;0.65;;;;;;;18.30;26.32;98825.78;5051157;28;20087;-73
2022/03/28 03:35:29;;;;;;;1.38;0.60;;;;;;;18.31;26.77;98816.75;5052155;28;20091;-74
2022/03/28 03:37:55;;;;;;;1.67;0.70;;;;;;;18.33;27.00;98821.91;5051852;28;20439;-73
2022/03/28 03:40:20;;;;;;;2.03;0.47;;;;;;;18.34;26.52;98810.16;5051184;28;20067;-74
2022/03/28 03:42:46;;;;;;;2.08;0.50;;;;;;;18.36;27.28;98808.13;5051706;28;20079;-72
2022/03/28 03:45:11;;;;;;;1.85;0.88;;;;;;;18.39;26.80;98813.13;5051811;28;20033;-72
2022/03/28 03:47:37;;;;;;;2.88;1.20;;;;;;;18.37;27.10;98807.97;5051752;28;20086;-74
2022/03/28 03:50:06;;;;;;;2.92;0.52;;;;;;;18.39;26.62;98810.44;5051827;28;20111;-72
2022/03/28 03:52:31;;;;;;;0.68;0.50;;;;;;;18.39;26.15;98805.09;5051346;28;20603;-72
2022/03/28 03:54:57;;;;;;;0.95;0.47;;;;;;;18.42;26.59;98810.06;5052111;28;20029;-72
2022/03/28 03:57:22;;;;;;;1.10;0.50;;;;;;;18.44;25.95;98803.50;5051704;28;20048;-73
2022/03/28 03:59:48;;;;;;;1.35;0.50;;;;;;;18.46;26.51;98803.28;5051642;28;20420;-73
2022/03/28 04:02:13;;;;;;;1.13;0.63;;;;;;;18.50;27.42;98817.16;5050880;28;20105;-73
2022/03/28 04:04:39;;;;;;;1.63;0.80;;;;;;;18.52;26.90;98804.41;5051559;28;20399;-72
2022/03/28 04:07:04;;;;;;;2.33;0.63;;;;;;;18.55;26.18;98807.53;5051732;28;20239;-73
2022/03/28 04:09:30;;;;;;;1.20;0.63;;;;;;;18.58;26.03;98791.09;5051765;28;20471;-74
2022/03/28 04:11:56;;;;;;;1.52;0.70;;;;;;;18.60;26.66;98801.59;5054567;28;20036;-75
2022/03/28 04:14:21;;;;;;;2.25;0.80;;;;;;;18.61;26.64;98798.72;5055124;28;20040;-73
2022/03/28 04:16:47;;;;;;;2.33;0.90;;;;;;;18.64;26.58;98802.88;5054739;28;20115;-75
2022/03/28 04:19:13;;;;;;;2.10;0.88;;;;;;;18.65;26.39;98814.41;5054798;28;20047;-73
2022/03/28 04:21:38;;;;;;;1.55;0.80;;;;;;;18.63;26.43;98806.56;5054457;28;20048;-74
2022/03/28 04:24:04;;;;;;;2.40;0.60;;;;;;;18.67;27.08;98807.00;5054815;28;20045;-75
2022/03/28 04:26:30;;;;;;;1.27;0.68;;;;;;;18.70;26.19;98803.97;5054446;28;20036;-72
2022/03/28 04:28:55;;;;;;;1.50;0.80;;;;;;;18.74;26.29;98803.38;5055054;28;20174;-74
2022/03/28 04:31:21;;;;;;;1.58;0.70;;;;;;;18.74;26.15;98789.97;5055046;28;20033;-74
2022/03/28 04:33:47;;;;;;;1.70;0.68;;;;;;;18.75;26.36;98780.06;5055085;28;20033;-74
2022/03/28 04:36:12;;;;;;;2.67;0.77;;;;;;;18.75;26.39;98785.44;5054448;28;20135;-72
2022/03/28 04:38:37;;;;;;;1.45;0.70;;;;;;;18.76;26.09;98790.63;5054362;28;20123;-72
2022/03/28 04:41:03;;;;;;;1.75;0.75;;;;;;;18.76;26.74;98790.63;5055011;28;20040;-74
2022/03/28 04:43:29;;;;;;;2.65;0.60;;;;;;;18.82;26.09;98790.88;5054205;28;20033;-74
2022/03/28 04:45:54;;;;;;;1.10;0.68;;;;;;;18.86;25.74;98787.63;5054648;28;20036;-71
2022/03/28 04:48:20;;;;;;;1.77;0.70;;;;;;;18.87;26.20;98788.44;5054215;28;20068;-73
2022/03/28 04:50:46;;;;;;;2.65;0.65;;;;;;;18.84;26.12;98773.56;5054230;28;20037;-71
2022/03/28 04:53:12;;;;;;;2.08;1.00;;;;;;;18.85;25.34;98767.19;5054160;28;20454;-73
2022/03/28 04:55:38;;;;;;;1.25;0.82;;;;;;;18.85;25.46;98775.22;5036845;28;20041;-73
2022/03/28 04:58:04;;;;;;;3.20;0.80;;;;;;;18.86;25.73;98771.53;5053845;28;20037;-72
2022/03/28 05:00:29;;;;;;;2.70;0.90;;;;;;;18.88;25.10;98758.78;5054476;28;20495;-72
2022/03/28 05:02:55;;;;;;;3.13;0.75;;;;;;;18.88;24.66;98744.53;5053509;28;20504;-73
2022/03/28 05:05:21;;;;;;;3.25;1.00;;;;;;;18.89;24.79;98733.63;5054047;28;20064;-73
2022/03/28 05:07:46;;;;;;;1.50;0.70;;;;;;;18.92;24.89;98737.75;5053441;28;20036;-72
2022/03/28 05:10:12;;;;;;;3.53;0.85;;;;;;;18.94;25.21;98730.38;5054152;28;20120;-73
2022/03/28 05:12:37;;;;;;;1.48;0.68;;;;;;;18.96;24.52;98733.72;5053845;28;20037;-73
2022/03/28 05:15:04;;;;;;;1.55;0.70;;;;;;;18.98;23.75;98725.47;5053741;28;20021;-73
2022/03/28 05:17:31;;;;;;;1.05;0.55;;;;;;;18.98;23.11;98712.88;5049510;28;20037;-73
2022/03/28 05:19:59;;;;;;;2.05;0.77;;;;;;;19.00;23.50;98720.72;5034098;28;20040;-72
2022/03/28 05:22:25;;;;;;;4.13;0.95;;;;;;;18.98;24.31;98704.00;5042071;28;20131;-71
2022/03/28 05:24:51;;;;;;;2.50;0.70;;;;;;;18.98;23.86;98704.81;5033411;28;20112;-71
2022/03/28 05:27:17;;;;;;;6.75;1.10;;;;;;;19.00;23.82;98696.59;5033483;28;20029;-72
2022/03/28 05:29:43;;;;;;;3.90;1.00;;;;;;;18.97;23.35;98683.59;5033744;28;20861;-73
2022/03/28 05:32:10;;;;;;;5.15;1.30;;;;;;;18.98;23.17;98683.38;5038708;28;20033;-73
2022/03/28 05:34:36;;;;;;;4.43;1.10;;;;;;;18.99;23.32;98670.81;5053478;28;20094;-71
2022/03/28 05:37:08;;;;;;;1.48;0.90;;;;;;;19.02;23.47;98662.38;5053408;28;20496;-72
2022/03/28 05:39:35;;;;;;;1.98;0.98;;;;;;;19.02;24.46;98649.00;5053491;28;20493;-71
2022/03/28 05:42:01;;;;;;;2.15;1.05;;;;;;;19.04;24.05;98653.13;5035545;28;20125;-71
2022/03/28 05:44:27;;;;;;;3.97;1.00;;;;;;;19.06;24.09;98643.03;5052959;28;20460;-71
2022/03/28 05:46:52;;;;;;;3.38;1.65;;;;;;;19.06;23.59;98636.81;5035092;28;20060;-70
2022/03/28 05:49:19;;;;;;;2.08;0.95;;;;;;;19.08;22.85;98631.28;5053161;28;20071;-73
2022/03/28 05:51:45;;;;;;;5.13;1.10;;;;;;;19.09;23.00;98630.25;5034663;28;20032;-71
2022/03/28 05:54:12;;;;;;;4.30;0.73;;;;;;;19.10;23.84;98630.03;5053079;28;20046;-72
2022/03/28 05:56:38;;;;;;;4.60;1.05;;;;;;;19.10;23.33;98632.72;5035713;28;20048;-72
2022/03/28 05:59:07;;;;;;;2.88;1.27;;;;;;;19.09;22.92;98631.06;5053286;28;20428;-71
2022/03/28 06:01:33;;;;;;;2.42;1.20;;;;;;;19.09;23.64;98620.34;5052520;28;20028;-70
2022/03/28 06:03:59;;;;;;;4.38;1.05;;;;;;;19.13;23.17;98615.41;5053208;28;20064;-72
2022/03/28 06:06:24;;;;;;;3.70;1.38;;;;;;;19.12;23.07;98614.59;5052738;28;20064;-70
2022/03/28 06:08:50;;;;;;;2.63;1.33;;;;;;;19.10;23.82;98611.28;5052593;28;20049;-72
2022/03/28 06:11:17;;;;;;;3.42;1.05;;;;;;;19.09;23.95;98603.44;5052783;28;20548;-72
2022/03/28 06:13:42;;;;;;;3.20;1.17;;;;;;;19.10;23.31;98599.75;5052514;28;20072;-72
2022/03/28 06:16:28;;;;;;;4.43;1.30;;;;;;;19.12;23.26;98581.56;5049714;28;20033;-72
2022/03/28 06:18:53;;;;;;;3.33;2.17;;;;;;;19.11;22.91;98567.34;5032282;28;20037;-70
2022/03/28 06:21:19;;;;;;;3.25;1.20;;;;;;;19.12;22.80;98569.00;5032856;28;20441;-71
2022/03/28 06:23:45;;;;;;;3.22;1.30;;;;;;;19.12;23.79;98550.25;5050583;28;20040;-69
2022/03/28 06:26:11;;;;;;;2.47;1.00;;;;;;;19.15;23.29;98546.31;5052297;28;20037;-69
2022/03/28 06:28:39;;;;;;;3.97;1.98;;;;;;;19.17;23.29;98541.59;5052456;28;20063;-71
2022/03/28 06:31:05;;;;;;;2.42;1.08;;;;;;;19.15;23.17;98522.19;5052418;28;20035;-73
2022/03/28 06:33:31;;;;;;;2.72;1.10;;;;;;;19.18;23.74;98529.84;5052203;28;20036;-71
2022/03/28 06:35:56;;;;;;;1.98;1.13;;;;;;;19.17;22.63;98529.03;5052788;28;20039;-73
2022/03/28 06:38:22;;;;;;;4.13;2.15;;;;;;;19.20;23.27;98525.91;5052365;28;20040;-72
2022/03/28 06:40:48;;;;;;;1.70;0.90;;;;;;;19.20;23.62;98519.75;5052617;28;20048;-72
2022/03/28 06:43:14;;;;;;;2.85;1.48;;;;;;;19.26;23.86;98510.06;5051971;28;20094;-72
2022/03/28 06:45:39;;;;;;;1.42;0.90;;;;;;;19.28;23.92;98503.44;5052338;28;20045;-71
2022/03/28 06:48:06;;;;;;;1.23;0.88;;;;;;;19.33;24.07;98498.31;5051970;28;20041;-71
2022/03/28 06:50:33;;;;;;;1.50;0.80;;;;;;;19.35;23.93;98495.41;5052442;28;20458;-73
2022/03/28 06:52:59;;;;;;;0.80;0.60;;;;;;;19.36;24.02;98500.59;5052415;28;20134;-72
2022/03/28 06:55:24;;;;;;;2.40;0.95;;;;;;;19.38;23.29;98470.06;5052312;28;20029;-72
2022/03/28 06:57:51;;;;;;;3.90;0.90;;;;;;;19.41;22.77;98475.03;5051580;28;20455;-72
2022/03/28 07:00:17;;;;;;;2.85;0.90;;;;;;;19.40;23.61;98457.28;5052347;28;20048;-70
2022/03/28 07:02:43;;;;;;;2.60;1.00;;;;;;;19.43;23.53;98460.38;5050977;28;20097;-73
2022/03/28 07:05:09;;;;;;;1.48;1.20;;;;;;;19.46;23.78;98449.22;5051018;28;20124;-73
2022/03/28 07:07:48;;;;;;;3.08;0.73;;;;;;;19.48;23.50;98444.47;5051607;28;20546;-72
2022/03/28 07:10:16;;;;;;;1.33;0.82;;;;;;;19.50;23.11;98441.59;5052501;28;20036;-69
2022/03/28 07:12:42;;;;;;;2.28;0.90;;;;;;;19.50;23.11;98431.66;5051692;28;20039;-70
2022/03/28 07:15:09;;;;;;;1.63;0.85;;;;;;;19.53;23.26;98422.41;5051646;28;20400;-71
2022/03/28 07:17:56;;;;;;;2.85;1.20;;;;;;;19.54;23.57;98399.06;5052021;28;20029;-70
2022/03/28 07:20:28;;;;;;;2.10;1.02;;;;;;;19.54;22.84;98396.38;5051834;28;20045;-71
2022/03/28 07:22:55;;;;;;;3.25;0.90;;;;;;;19.55;22.87;98396.19;5050735;28;20060;-71
2022/03/28 07:25:22;;;;;;;1.63;0.90;;;;;;;19.57;23.13;98385.25;5051850;28;20038;-71
2022/03/28 07:27:47;;;;;;;1.52;0.80;;;;;;;19.57;23.64;98378.00;5051249;28;20044;-72
2022/03/28 07:30:14;;;;;;;2.10;0.73;;;;;;;19.60;23.30;98377.59;5051847;28;20033;-72
2022/03/28 07:32:40;;;;;;;1.95;1.63;;;;;;;19.61;23.00;98371.19;5051773;28;20029;-74
2022/03/28 07:35:08;;;;;;;1.77;1.02;;;;;;;19.60;22.90;98350.78;5052190;28;20390;-72
2022/03/28 07:37:34;;;;;;;2.28;0.75;;;;;;;19.60;22.12;98352.63;5051570;28;20043;-74
2022/03/28 07:40:01;;;;;;;4.18;0.75;;;;;;;19.62;22.34;98335.28;5051473;28;20041;-73
2022/03/28 07:42:28;;;;;;;2.20;0.85;;;;;;;19.62;22.59;98324.56;5051354;28;20049;-71
2022/03/28 07:44:56;;;;;;;3.45;0.70;;;;;;;19.62;22.39;98307.66;5052142;28;20478;-70
2022/03/28 07:47:25;;;;;;;2.13;0.80;;;;;;;19.64;23.00;98305.56;5056004;28;20041;-73
2022/03/28 07:49:53;;;;;;;5.18;0.80;;;;;;;19.65;22.81;98300.00;5055742;28;20032;-72
2022/03/28 07:52:19;;;;;;;1.88;0.50;;;;;;;19.67;22.76;98302.44;5055222;28;20039;-74
2022/03/28 07:54:44;;;;;;;2.35;0.70;;;;;;;19.69;23.38;98284.28;5055836;28;20052;-70
2022/03/28 07:57:11;;;;;;;2.38;0.75;;;;;;;19.75;22.63;98296.88;5055210;28;20043;-71
2022/03/28 07:59:38;;;;;;;3.72;0.75;;;;;;;19.77;23.17;98275.19;5055347;28;20032;-71
2022/03/28 08:02:04;;;;;;;4.22;0.80;;;;;;;19.78;23.90;98263.41;5055139;28;20033;-71
2022/03/28 08:04:30;;;;;;;2.25;0.93;;;;;;;19.83;23.36;98267.09;5055129;28;20087;-70
2022/03/28 08:06:55;;;;;;;1.42;0.80;;;;;;;19.86;23.57;98262.34;5055000;28;20075;-71
2022/03/28 08:09:21;;;;;;;1.45;0.93;;;;;;;19.87;23.01;98262.16;5055425;28;20069;-70
2022/03/28 08:11:46;;;;;;;3.63;0.90;;;;;;;19.87;23.33;98240.69;5054517;28;20040;-71
2022/03/28 08:14:12;;;;;;;1.73;1.05;;;;;;;19.86;23.50;98230.16;5054394;28;20040;-70
2022/03/28 08:16:37;;;;;;;1.40;0.70;;;;;;;19.90;22.98;98221.47;5054814;28;20408;-70
2022/03/28 08:19:03;;;;;;;1.30;0.52;;;;;;;19.88;23.21;98226.22;5053771;28;20037;-71
2022/03/28 08:21:29;;;;;;;3.60;1.23;;;;;;;19.87;22.52;98208.47;5054691;28;20053;-71
2022/03/28 08:23:55;;;;;;;1.23;0.60;;;;;;;19.86;22.31;98197.94;5054515;28;20035;-71
2022/03/28 08:26:21;;;;;;;1.52;0.60;;;;;;;19.88;22.79;98198.56;5054271;28;20029;-71
2022/03/28 08:28:46;;;;;;;1.73;0.52;;;;;;;19.89;22.56;98189.50;5054196;28;20063;-69
2022/03/28 08:31:12;;;;;;;0.95;0.60;;;;;;;19.88;22.55;98169.06;5054429;28;20086;-72
2022/03/28 08:33:38;;;;;;;0.85;0.50;;;;;;;19.90;22.31;98166.97;5053088;28;20029;-70
2022/03/28 08:36:03;;;;;;;1.83;0.60;;;;;;;19.85;22.98;98158.72;5053024;28;20530;-72
2022/03/28 08:38:31;;;;;;;2.90;0.70;;;;;;;19.87;23.03;98149.44;5053111;28;20021;-71
2022/03/28 08:40:57;;;;;;;5.00;0.60;;;;;;;19.85;23.43;98135.38;5052653;28;20031;-71
2022/03/28 08:43:24;;;;;;;1.55;0.60;;;;;;;19.88;23.79;98123.41;5052713;28;20116;-72
2022/03/28 08:45:50;;;;;;;5.63;0.80;;;;;;;19.91;23.73;98123.81;5050393;28;20469;-71
2022/03/28 08:48:17;;;;;;;4.28;0.50;;;;;;;19.94;24.57;98106.44;5042558;28;20028;-71
2022/03/28 08:50:45;;;;;;;1.33;0.57;;;;;;;19.96;23.89;98093.63;5037053;28;20029;-73
2022/03/28 08:53:12;;;;;;;0.93;0.55;;;;;;;19.94;23.05;98090.31;5049824;28;20078;-70
2022/03/28 08:55:42;;;;;;;1.88;0.50;;;;;;;19.93;23.27;98070.72;5052164;28;20037;-77
2022/03/28 08:58:08;;;;;;;1.92;0.60;;;;;;;19.90;22.85;98063.09;5052310;28;20091;-71
2022/03/28 09:00:34;;;;;;;3.00;0.75;;;;;;;19.88;22.75;98051.75;5054026;28;20112;-70
2022/03/28 09:03:00;;;;;;;2.38;0.70;;;;;;;19.83;22.34;98044.34;5051874;28;20136;-72
2022/03/28 09:05:34;;;;;;;2.38;0.70;;;;;;;19.83;22.29;98044.34;5051637;28;20206;-71
2022/03/28 09:08:01;;;;;;;1.08;0.50;;;;;;;19.82;22.74;98044.56;5050430;28;20120;-70
2022/03/28 09:10:32;;;;;;;1.25;0.50;;;;;;;19.82;23.06;98040.00;5047742;28;20025;-73
2022/03/28 09:13:12;;;;;;;3.25;0.82;;;;;;;19.80;23.39;98022.50;5045459;28;20029;-71
2022/03/28 09:15:49;;;;;;;2.22;0.65;;;;;;;19.81;23.63;98014.22;5045618;28;20124;-69
2022/03/28 09:18:47;;;;;;;1.30;0.60;;;;;;;19.82;24.25;98017.72;5048504;28;20037;-72
2022/03/28 09:21:17;;;;;;;1.65;0.80;;;;;;;19.84;24.48;98002.22;5044426;28;20498;-71
2022/03/28 09:23:46;;;;;;;0.80;0.45;;;;;;;19.89;25.20;98004.28;5052958;28;20044;-70
2022/03/28 09:26:27;;;;;;;3.80;0.70;;;;;;;19.92;24.97;98001.16;5047108;28;20045;-75
2022/03/28 09:28:56;;;;;;;5.40;1.00;;;;;;;19.93;24.92;97989.34;5053656;28;20406;-71
2022/03/28 09:31:30;;;;;;;3.72;1.00;;;;;;;19.96;24.93;97989.75;5053126;28;20033;-73
2022/03/28 09:34:00;;;;;;;1.63;0.70;;;;;;;19.99;24.66;97983.13;5053048;28;20031;-71
2022/03/28 09:36:42;;;;;;;1.30;0.67;;;;;;;19.97;24.12;97967.25;5053822;28;20071;-72
2022/03/28 09:39:11;;;;;;;1.95;0.75;;;;;;;19.96;24.11;97964.78;5050008;28;20676;-72
2022/03/28 09:41:37;;;;;;;1.38;0.65;;;;;;;19.95;23.79;97947.03;5047369;28;20043;-74
2022/03/28 09:44:03;;;;;;;1.60;0.70;;;;;;;19.93;23.77;97943.72;5049971;28;20037;-71
2022/03/28 09:46:31;;;;;;;4.55;1.55;;;;;;;19.94;24.06;97942.69;5052479;28;20063;-73
2022/03/28 09:48:59;;;;;;;2.60;1.00;;;;;;;19.93;24.41;97919.56;5050519;28;20036;-71
2022/03/28 09:51:37;;;;;;;1.42;0.77;;;;;;;19.98;24.61;97914.38;5050532;28;20037;-69
2022/03/28 09:54:18;;;;;;;3.30;0.70;;;;;;;19.96;24.60;97913.75;5048118;28;20036;-76
2022/03/28 09:56:44;;;;;;;2.40;1.00;;;;;;;19.95;24.96;97917.50;5051272;28;20033;-76
2022/03/28 09:59:09;;;;;;;1.33;0.60;;;;;;;19.93;24.16;97909.66;5052249;28;20608;-75
2022/03/28 10:01:40;;;;;;;4.35;0.52;;;;;;;19.95;24.81;97887.97;5051823;28;20032;-75
2022/03/28 10:04:08;;;;;;;4.80;3.13;;;;;;;19.94;24.87;97897.06;5047719;28;20025;-70
2022/03/28 10:06:39;;;;;;;8.02;1.42;;;;;;;19.76;25.47;97898.66;5051700;28;20033;-71
2022/03/28 10:09:06;;;;;;;2.95;1.73;;;;;;;19.17;26.54;97880.16;5051981;28;20495;-71
2022/03/28 10:11:32;;;;;;;3.70;1.08;;;;;;;18.61;27.17;97874.47;5051823;28;20059;-71
2022/03/28 10:13:58;;;;;;;3.63;1.08;;;;;;;18.18;27.87;97872.38;5053038;28;20033;-71
2022/03/28 10:16:25;;;;;;;3.92;1.00;;;;;;;17.82;28.07;97860.31;5052971;28;20064;-71
2022/03/28 10:18:50;;;;;;;3.00;1.15;;;;;;;17.55;28.21;97847.00;5053077;28;20438;-71
2022/03/28 10:21:31;;;;;;;2.03;1.42;;;;;;;17.32;28.52;97848.25;5052363;28;20082;-72
2022/03/28 10:24:03;;;;;;;1.35;0.77;;;;;;;17.13;28.88;97835.72;5052175;28;20033;-71
2022/03/28 10:26:34;;;;;;;1.75;0.80;;;;;;;16.98;28.51;97831.38;5052030;28;20037;-71
2022/03/28 10:29:07;;;;;;;3.72;1.13;;;;;;;16.88;28.89;97833.59;5052906;28;20044;-71
2022/03/28 10:31:34;;;;;;;5.70;2.55;;;;;;;16.81;28.82;97827.44;5034688;28;20047;-71
2022/03/28 10:34:02;;;;;;;1.50;0.85;;;;;;;16.70;29.02;97821.63;5052568;28;20104;-71
2022/03/28 10:36:32;;;;;;;1.13;0.70;;;;;;;16.69;28.80;97814.66;5051851;28;20150;-71
2022/03/28 10:39:35;;;;;;;3.00;1.20;;;;;;;16.82;28.68;97802.38;5052778;28;20399;-71
2022/03/28 10:42:16;;;;;;;1.05;0.77;;;;;;;16.94;28.32;97779.34;4984353;28;20041;-71
2022/03/28 10:44:43;;;;;;;;;;;;;;;17.01;28.34;97779.38;5053324;28;20060;-71
2022/03/28 10:47:08;;;;;;;3.40;1.08;;;;;;;17.11;28.56;97776.31;5051673;28;19916;-71
2022/03/28 10:49:34;;;;;;;1.90;1.05;;;;;;;17.17;28.24;97762.09;5052235;28;20078;-71
2022/03/28 10:52:02;;;;;;;1.38;0.60;;;;;;;17.19;28.63;97760.03;5052512;28;20036;-70
2022/03/28 10:54:38;;;;;;;3.85;0.80;;;;;;;17.15;28.09;97750.78;5052290;28;20025;-70
2022/03/28 10:57:04;;;;;;;2.05;0.75;;;;;;;17.16;28.14;97739.06;5032185;28;20029;-70
2022/03/28 10:59:31;;;;;;;1.92;0.90;;;;;;;17.18;28.10;97735.19;5032712;28;20025;-72
2022/03/28 11:01:57;;;;;;;3.35;0.90;;;;;;;17.27;28.38;97748.31;5036452;28;20031;-69
2022/03/28 11:04:23;;;;;;;2.95;0.80;;;;;;;17.32;28.34;97733.28;5052311;28;20396;-70
2022/03/28 11:07:05;;;;;;;1.45;0.65;;;;;;;17.31;27.76;97747.69;5052000;28;20039;-71
2022/03/28 11:09:43;;;;;;;2.03;1.00;;;;;;;17.31;28.18;97745.00;5052073;28;20054;-72
2022/03/28 11:12:29;;;;;;;3.60;1.00;;;;;;;17.34;28.40;97733.09;5051552;28;20033;-71
2022/03/28 11:14:56;;;;;;;1.42;0.93;;;;;;;17.34;28.24;97730.44;5052043;28;20033;-70
2022/03/28 11:17:23;;;;;;;1.52;0.90;;;;;;;17.32;28.20;97717.25;5048498;28;20071;-71
2022/03/28 11:19:54;;;;;;;3.38;0.77;;;;;;;17.39;28.08;97711.88;5034686;28;20029;-71
2022/03/28 11:22:39;;;;;;;1.55;0.80;;;;;;;17.48;28.15;97699.13;5036230;28;20058;-71
2022/03/28 11:25:25;;;;;;;1.80;0.70;;;;;;;17.49;27.88;97687.38;5041513;28;20049;-71
2022/03/28 11:27:50;;;;;;;1.02;0.60;;;;;;;17.32;27.91;97674.47;5056060;28;20075;-71
2022/03/28 11:30:16;;;;;;;1.95;1.42;;;;;;;17.14;28.15;97655.63;5056183;28;20090;-72
2022/03/28 11:32:41;;;;;;;1.25;0.80;;;;;;;16.96;27.91;97656.28;5055821;28;20449;-72
2022/03/28 11:35:10;;;;;;;2.15;0.90;;;;;;;16.80;27.72;97642.31;5056349;28;20033;-71